Terminal Aerodrome Forecast
Issued by NWS Houston/Galveston, TX

Home | Current Version | Previous Version | Text Only | Print | Product List | Glossary On
Versions: 1 2 3 4 5 6 7 8 9 10 11 12 13 14 15 16 17 18 19 20 21
000
FTUS44 KHGX 160524
TAFCLL
TAF
KCLL 160524Z 1606/1706 VRB04KT P6SM SKC
     FM161500 14013KT P6SM SCT250
     FM162100 15013KT P6SM FEW040 SCT250
     FM170200 14008KT P6SM FEW030 BKN250=

USA.gov is the U.S. government's official web portal to all federal, state and local government web resources and services.